Naponee, Nebraska
Current Conditions -  °F | °C
As of 7:35 PM on Sunday 23 Nov 2014 (Local Time) from KHDE Reporting Station
Clear Clear  
Wind Chill:   Ceiling: Unl
Heat Index:   Visibility: 10mi
Dew Point: -8°   Wind: 15mph
Humidity: 40%   Direction: 330°NNW
Pressure: 29.69"   Gusts: 25mph
Location:  40.08°N, 99.14°W
Report Text: KHDE 240135Z AUTO 33013G22KT 10SM CLR 05/M08 A2969 RMK AO2 T00451080
Loading
Personal Weather Stations






























Interactive Weather Map New forecast layout! Learn more

10-Day Weather Forecast

Advertisements
Track Severe Weather on mobile